sensor_id;sensor_type;location;lat;lon;timestamp;pressure;altitude;pressure_sealevel;temperature;humidity
14689;BME280;7432;48.728;9.154;2022-08-25T00:00:58;96696.91;;;19.74;73.39
14689;BME280;7432;48.728;9.154;2022-08-25T00:03:25;96697.09;;;19.73;73.10
14689;BME280;7432;48.728;9.154;2022-08-25T00:05:51;96697.09;;;19.73;73.62
14689;BME280;7432;48.728;9.154;2022-08-25T00:08:18;96687.88;;;19.70;73.86
14689;BME280;7432;48.728;9.154;2022-08-25T00:10:44;96691.78;;;19.61;74.05
14689;BME280;7432;48.728;9.154;2022-08-25T00:13:12;96691.97;;;19.60;74.20
14689;BME280;7432;48.728;9.154;2022-08-25T00:15:38;96694.81;;;19.58;74.29
14689;BME280;7432;48.728;9.154;2022-08-25T00:18:05;96693.59;;;19.54;74.79
14689;BME280;7432;48.728;9.154;2022-08-25T00:20:31;96689.03;;;19.49;74.88
14689;BME280;7432;48.728;9.154;2022-08-25T00:22:58;96692.63;;;19.48;74.91
14689;BME280;7432;48.728;9.154;2022-08-25T00:25:24;96685.81;;;19.47;74.56
14689;BME280;7432;48.728;9.154;2022-08-25T00:27:51;96689.06;;;19.43;74.74
14689;BME280;7432;48.728;9.154;2022-08-25T00:30:19;96688.88;;;19.38;75.00
14689;BME280;7432;48.728;9.154;2022-08-25T00:32:46;96693.09;;;19.32;76.14
14689;BME280;7432;48.728;9.154;2022-08-25T00:35:13;96691.94;;;19.28;75.37
14689;BME280;7432;48.728;9.154;2022-08-25T00:37:39;96689.09;;;19.30;75.53
14689;BME280;7432;48.728;9.154;2022-08-25T00:40:07;96689.31;;;19.28;75.86
14689;BME280;7432;48.728;9.154;2022-08-25T00:42:34;96685.09;;;19.27;75.74
14689;BME280;7432;48.728;9.154;2022-08-25T00:45:00;96684.34;;;19.20;75.97
14689;BME280;7432;48.728;9.154;2022-08-25T00:47:28;96687.38;;;19.17;76.25
14689;BME280;7432;48.728;9.154;2022-08-25T00:49:58;96686.59;;;19.10;76.50
14689;BME280;7432;48.728;9.154;2022-08-25T00:52:27;96685.19;;;19.08;76.56
14689;BME280;7432;48.728;9.154;2022-08-25T00:54:58;96676.38;;;19.02;76.67
14689;BME280;7432;48.728;9.154;2022-08-25T00:57:29;96683.41;;;19.02;76.98
14689;BME280;7432;48.728;9.154;2022-08-25T00:59:56;96681.25;;;18.99;77.23
14689;BME280;7432;48.728;9.154;2022-08-25T01:02:23;96676.03;;;18.92;77.59
14689;BME280;7432;48.728;9.154;2022-08-25T01:04:51;96672.84;;;18.90;77.91
14689;BME280;7432;48.728;9.154;2022-08-25T01:07:18;96674.47;;;18.84;77.87
14689;BME280;7432;48.728;9.154;2022-08-25T01:09:49;96663.06;;;18.79;78.26
14689;BME280;7432;48.728;9.154;2022-08-25T01:12:16;96666.47;;;18.79;78.26
14689;BME280;7432;48.728;9.154;2022-08-25T01:14:44;96663.66;;;18.74;78.31
14689;BME280;7432;48.728;9.154;2022-08-25T01:17:11;96666.47;;;18.73;78.45
14689;BME280;7432;48.728;9.154;2022-08-25T01:19:37;96661.84;;;18.75;78.47
14689;BME280;7432;48.728;9.154;2022-08-25T01:22:05;96658.47;;;18.68;78.42
14689;BME280;7432;48.728;9.154;2022-08-25T01:24:37;96655.69;;;18.56;79.11
14689;BME280;7432;48.728;9.154;2022-08-25T01:27:07;96657.91;;;18.59;79.06
14689;BME280;7432;48.728;9.154;2022-08-25T01:29:35;96662.50;;;18.64;78.52
14689;BME280;7432;48.728;9.154;2022-08-25T01:32:05;96657.91;;;18.59;78.69
14689;BME280;7432;48.728;9.154;2022-08-25T01:34:34;96661.53;;;18.52;79.10
14689;BME280;7432;48.728;9.154;2022-08-25T01:37:00;96662.09;;;18.47;79.11
14689;BME280;7432;48.728;9.154;2022-08-25T01:39:30;96656.91;;;18.47;79.14
14689;BME280;7432;48.728;9.154;2022-08-25T01:42:08;96664.94;;;18.46;79.51
14689;BME280;7432;48.728;9.154;2022-08-25T01:44:40;96665.56;;;18.41;79.91
14689;BME280;7432;48.728;9.154;2022-08-25T01:47:08;96661.94;;;18.42;79.68
14689;BME280;7432;48.728;9.154;2022-08-25T01:49:35;96667.16;;;18.42;79.62
14689;BME280;7432;48.728;9.154;2022-08-25T01:52:05;96664.94;;;18.39;79.90
14689;BME280;7432;48.728;9.154;2022-08-25T01:54:36;96662.75;;;18.36;79.94
14689;BME280;7432;48.728;9.154;2022-08-25T01:57:03;96661.16;;;18.35;80.31
14689;BME280;7432;48.728;9.154;2022-08-25T01:59:30;96661.78;;;18.30;79.98
14689;BME280;7432;48.728;9.154;2022-08-25T02:01:56;96667.38;;;18.34;80.29
14689;BME280;7432;48.728;9.154;2022-08-25T02:04:23;96663.75;;;18.28;80.73
14689;BME280;7432;48.728;9.154;2022-08-25T02:06:50;96659.34;;;18.29;80.51
14689;BME280;7432;48.728;9.154;2022-08-25T02:09:17;96659.34;;;18.29;80.67
14689;BME280;7432;48.728;9.154;2022-08-25T02:11:46;96670.19;;;18.26;80.64
14689;BME280;7432;48.728;9.154;2022-08-25T02:14:14;96669.38;;;18.25;80.62
14689;BME280;7432;48.728;9.154;2022-08-25T02:16:44;96665.78;;;18.26;80.60
14689;BME280;7432;48.728;9.154;2022-08-25T02:19:11;96670.78;;;18.28;80.72
14689;BME280;7432;48.728;9.154;2022-08-25T02:21:38;96671.22;;;18.25;80.65
14689;BME280;7432;48.728;9.154;2022-08-25T02:24:06;96673.00;;;18.24;80.76
14689;BME280;7432;48.728;9.154;2022-08-25T02:26:34;96669.41;;;18.19;81.00
14689;BME280;7432;48.728;9.154;2022-08-25T02:29:03;96672.59;;;18.14;81.19
14689;BME280;7432;48.728;9.154;2022-08-25T02:31:29;96671.03;;;18.07;81.46
14689;BME280;7432;48.728;9.154;2022-08-25T02:33:56;96665.00;;;18.13;81.33
14689;BME280;7432;48.728;9.154;2022-08-25T02:36:23;96655.78;;;18.04;81.54
14689;BME280;7432;48.728;9.154;2022-08-25T02:38:49;96670.41;;;17.98;81.94
14689;BME280;7432;48.728;9.154;2022-08-25T02:41:19;96659.00;;;17.99;82.05
14689;BME280;7432;48.728;9.154;2022-08-25T02:43:47;96662.19;;;18.01;82.27
14689;BME280;7432;48.728;9.154;2022-08-25T02:46:17;96663.00;;;17.95;82.37
14689;BME280;7432;48.728;9.154;2022-08-25T02:48:44;96659.00;;;17.93;82.79
14689;BME280;7432;48.728;9.154;2022-08-25T02:51:11;96658.78;;;18.01;82.24
14689;BME280;7432;48.728;9.154;2022-08-25T02:53:40;96659.81;;;18.00;82.21
14689;BME280;7432;48.728;9.154;2022-08-25T02:56:12;96662.41;;;18.00;82.49
14689;BME280;7432;48.728;9.154;2022-08-25T02:58:40;96663.22;;;17.94;82.37
14689;BME280;7432;48.728;9.154;2022-08-25T03:01:08;96665.41;;;17.90;82.63
14689;BME280;7432;48.728;9.154;2022-08-25T03:03:37;96663.03;;;17.89;82.72
14689;BME280;7432;48.728;9.154;2022-08-25T03:06:06;96669.22;;;17.88;82.89
14689;BME280;7432;48.728;9.154;2022-08-25T03:08:32;96670.03;;;17.82;82.96
14689;BME280;7432;48.728;9.154;2022-08-25T03:10:59;96652.59;;;17.82;83.11
14689;BME280;7432;48.728;9.154;2022-08-25T03:13:25;96657.19;;;17.73;83.26
14689;BME280;7432;48.728;9.154;2022-08-25T03:15:51;96657.22;;;17.67;83.75
14689;BME280;7432;48.728;9.154;2022-08-25T03:18:18;96650.81;;;17.69;83.58
14689;BME280;7432;48.728;9.154;2022-08-25T03:20:46;96652.19;;;17.65;83.94
14689;BME280;7432;48.728;9.154;2022-08-25T03:23:12;96653.78;;;17.60;83.78
14689;BME280;7432;48.728;9.154;2022-08-25T03:25:40;96659.81;;;17.60;84.08
14689;BME280;7432;48.728;9.154;2022-08-25T03:28:24;96654.19;;;17.63;83.97
14689;BME280;7432;48.728;9.154;2022-08-25T03:30:51;96663.22;;;17.61;83.87
14689;BME280;7432;48.728;9.154;2022-08-25T03:33:17;96657.81;;;17.56;84.08
14689;BME280;7432;48.728;9.154;2022-08-25T03:35:44;96661.00;;;17.58;84.17
14689;BME280;7432;48.728;9.154;2022-08-25T03:38:12;96662.81;;;17.64;83.69
14689;BME280;7432;48.728;9.154;2022-08-25T03:40:38;96652.19;;;17.65;83.58
14689;BME280;7432;48.728;9.154;2022-08-25T03:43:05;96650.81;;;17.56;83.95
14689;BME280;7432;48.728;9.154;2022-08-25T03:45:31;96650.81;;;17.56;84.10
14689;BME280;7432;48.728;9.154;2022-08-25T03:47:58;96643.94;;;17.49;84.25
14689;BME280;7432;48.728;9.154;2022-08-25T03:50:24;96645.75;;;17.48;84.55
14689;BME280;7432;48.728;9.154;2022-08-25T03:52:52;96630.91;;;17.36;84.70
14689;BME280;7432;48.728;9.154;2022-08-25T03:55:22;96638.31;;;17.39;85.01
14689;BME280;7432;48.728;9.154;2022-08-25T03:57:49;96637.72;;;17.43;84.93
14689;BME280;7432;48.728;9.154;2022-08-25T04:00:16;96634.34;;;17.43;84.63
14689;BME280;7432;48.728;9.154;2022-08-25T04:02:42;96636.13;;;17.36;84.79
14689;BME280;7432;48.728;9.154;2022-08-25T04:05:10;96633.31;;;17.37;84.67
14689;BME280;7432;48.728;9.154;2022-08-25T04:07:37;96637.50;;;17.38;84.72
14689;BME280;7432;48.728;9.154;2022-08-25T04:10:04;96632.91;;;17.34;85.15
14689;BME280;7432;48.728;9.154;2022-08-25T04:12:32;96633.72;;;17.34;85.16
14689;BME280;7432;48.728;9.154;2022-08-25T04:14:58;96625.31;;;17.32;85.09
14689;BME280;7432;48.728;9.154;2022-08-25T04:17:25;96626.13;;;17.39;84.99
14689;BME280;7432;48.728;9.154;2022-08-25T04:19:51;96633.31;;;17.37;85.19
14689;BME280;7432;48.728;9.154;2022-08-25T04:22:18;96645.34;;;17.32;85.28
14689;BME280;7432;48.728;9.154;2022-08-25T04:24:44;96649.34;;;17.34;85.37
14689;BME280;7432;48.728;9.154;2022-08-25T04:27:11;96652.75;;;17.35;85.39
14689;BME280;7432;48.728;9.154;2022-08-25T04:29:39;96645.50;;;17.30;85.63
14689;BME280;7432;48.728;9.154;2022-08-25T04:32:05;96636.91;;;17.30;85.73
14689;BME280;7432;48.728;9.154;2022-08-25T04:34:32;96638.69;;;17.23;86.04
14689;BME280;7432;48.728;9.154;2022-08-25T04:37:00;96640.91;;;17.26;86.04
14689;BME280;7432;48.728;9.154;2022-08-25T04:39:27;96641.31;;;17.29;85.84
14689;BME280;7432;48.728;9.154;2022-08-25T04:41:53;96647.13;;;17.31;85.93
14689;BME280;7432;48.728;9.154;2022-08-25T04:44:20;96638.50;;;17.31;86.37
14689;BME280;7432;48.728;9.154;2022-08-25T04:46:48;96637.13;;;17.35;86.02
14689;BME280;7432;48.728;9.154;2022-08-25T04:49:14;96644.50;;;17.38;85.68
14689;BME280;7432;48.728;9.154;2022-08-25T04:51:41;96650.16;;;17.35;85.70
14689;BME280;7432;48.728;9.154;2022-08-25T04:54:10;96643.53;;;17.39;85.55
14689;BME280;7432;48.728;9.154;2022-08-25T04:56:39;96644.34;;;17.46;85.54
14689;BME280;7432;48.728;9.154;2022-08-25T04:59:07;96650.34;;;17.40;86.20
14689;BME280;7432;48.728;9.154;2022-08-25T05:01:35;96660.16;;;17.44;86.12
14689;BME280;7432;48.728;9.154;2022-08-25T05:04:05;96652.75;;;17.48;86.20
14689;BME280;7432;48.728;9.154;2022-08-25T05:06:32;96658.16;;;17.46;86.30
14689;BME280;7432;48.728;9.154;2022-08-25T05:08:59;96659.38;;;17.50;86.55
14689;BME280;7432;48.728;9.154;2022-08-25T05:11:27;96661.63;;;17.53;86.50
14689;BME280;7432;48.728;9.154;2022-08-25T05:13:55;96662.41;;;17.60;86.48
14689;BME280;7432;48.728;9.154;2022-08-25T05:16:23;96649.19;;;17.68;86.52
14689;BME280;7432;48.728;9.154;2022-08-25T05:18:50;96645.38;;;17.71;86.58
14689;BME280;7432;48.728;9.154;2022-08-25T05:21:24;96640.19;;;17.77;86.46
14689;BME280;7432;48.728;9.154;2022-08-25T05:23:54;96644.56;;;17.90;86.03
14689;BME280;7432;48.728;9.154;2022-08-25T05:26:22;96636.75;;;17.90;86.17
14689;BME280;7432;48.728;9.154;2022-08-25T05:28:50;96643.38;;;17.99;85.56
14689;BME280;7432;48.728;9.154;2022-08-25T05:31:17;96637.94;;;18.07;85.31
14689;BME280;7432;48.728;9.154;2022-08-25T05:33:44;96638.31;;;18.17;85.03
14689;BME280;7432;48.728;9.154;2022-08-25T05:36:12;96631.28;;;18.24;84.64
14689;BME280;7432;48.728;9.154;2022-08-25T05:38:40;96630.28;;;18.32;84.41
14689;BME280;7432;48.728;9.154;2022-08-25T05:41:08;96636.66;;;18.43;83.85
14689;BME280;7432;48.728;9.154;2022-08-25T05:43:35;96637.25;;;18.51;83.81
14689;BME280;7432;48.728;9.154;2022-08-25T05:46:02;96646.25;;;18.62;83.67
14689;BME280;7432;48.728;9.154;2022-08-25T05:48:29;96642.41;;;18.71;83.29
14689;BME280;7432;48.728;9.154;2022-08-25T05:50:57;96631.91;;;18.84;83.48
14689;BME280;7432;48.728;9.154;2022-08-25T05:53:25;96633.25;;;19.31;81.80
14689;BME280;7432;48.728;9.154;2022-08-25T05:55:54;96632.19;;;19.94;79.93
14689;BME280;7432;48.728;9.154;2022-08-25T05:58:21;96627.69;;;20.44;76.80
14689;BME280;7432;48.728;9.154;2022-08-25T06:00:48;96629.41;;;20.87;74.88
14689;BME280;7432;48.728;9.154;2022-08-25T06:03:15;96625.72;;;21.36;72.79
14689;BME280;7432;48.728;9.154;2022-08-25T06:05:41;96627.19;;;22.08;70.29
14689;BME280;7432;48.728;9.154;2022-08-25T06:08:07;96628.44;;;22.28;68.13
14689;BME280;7432;48.728;9.154;2022-08-25T06:10:34;96635.75;;;22.26;68.52
14689;BME280;7432;48.728;9.154;2022-08-25T06:13:02;96635.19;;;22.13;68.85
14689;BME280;7432;48.728;9.154;2022-08-25T06:15:30;96637.25;;;21.99;68.52
14689;BME280;7432;48.728;9.154;2022-08-25T06:17:57;96643.41;;;22.16;68.94
14689;BME280;7432;48.728;9.154;2022-08-25T06:20:27;96643.03;;;22.36;67.51
14689;BME280;7432;48.728;9.154;2022-08-25T06:22:55;96643.00;;;22.71;66.99
14689;BME280;7432;48.728;9.154;2022-08-25T06:25:23;96649.97;;;23.62;64.06
14689;BME280;7432;48.728;9.154;2022-08-25T06:27:50;96653.22;;;24.35;61.28
14689;BME280;7432;48.728;9.154;2022-08-25T06:30:20;96650.75;;;24.45;60.74
14689;BME280;7432;48.728;9.154;2022-08-25T06:32:47;96638.69;;;24.93;60.17
14689;BME280;7432;48.728;9.154;2022-08-25T06:35:16;96642.13;;;26.47;55.41
14689;BME280;7432;48.728;9.154;2022-08-25T06:37:44;96664.84;;;28.92;49.65
14689;BME280;7432;48.728;9.154;2022-08-25T06:40:12;96666.75;;;30.41;45.60
14689;BME280;7432;48.728;9.154;2022-08-25T06:42:39;96661.63;;;31.58;42.47
14689;BME280;7432;48.728;9.154;2022-08-25T06:45:08;96669.13;;;32.53;40.09
14689;BME280;7432;48.728;9.154;2022-08-25T06:47:36;96663.19;;;34.05;38.80
14689;BME280;7432;48.728;9.154;2022-08-25T06:50:03;96666.72;;;35.40;36.27
14689;BME280;7432;48.728;9.154;2022-08-25T06:52:30;96665.56;;;35.07;35.33
14689;BME280;7432;48.728;9.154;2022-08-25T06:54:57;96655.84;;;32.21;39.84
14689;BME280;7432;48.728;9.154;2022-08-25T06:57:23;96643.44;;;31.23;41.43
14689;BME280;7432;48.728;9.154;2022-08-25T06:59:50;96658.28;;;30.39;42.93
14689;BME280;7432;48.728;9.154;2022-08-25T07:02:16;96647.78;;;30.24;43.52
14689;BME280;7432;48.728;9.154;2022-08-25T07:04:44;96642.47;;;29.95;44.11
14689;BME280;7432;48.728;9.154;2022-08-25T07:07:10;96634.03;;;29.06;45.56
14689;BME280;7432;48.728;9.154;2022-08-25T07:09:37;96636.63;;;28.52;47.45
14689;BME280;7432;48.728;9.154;2022-08-25T07:12:04;96638.59;;;28.95;46.51
14689;BME280;7432;48.728;9.154;2022-08-25T07:14:30;96637.81;;;29.77;44.57
14689;BME280;7432;48.728;9.154;2022-08-25T07:16:57;96635.53;;;31.74;42.00
14689;BME280;7432;48.728;9.154;2022-08-25T07:19:23;96637.66;;;33.54;38.82
14689;BME280;7432;48.728;9.154;2022-08-25T07:21:52;96644.63;;;34.30;36.23
14689;BME280;7432;48.728;9.154;2022-08-25T07:24:19;96640.38;;;33.40;37.51
14689;BME280;7432;48.728;9.154;2022-08-25T07:26:46;96646.28;;;32.47;39.91
14689;BME280;7432;48.728;9.154;2022-08-25T07:29:15;96639.38;;;31.49;41.12
14689;BME280;7432;48.728;9.154;2022-08-25T07:31:42;96623.38;;;30.17;43.57
14689;BME280;7432;48.728;9.154;2022-08-25T07:34:09;96628.88;;;28.55;46.91
14689;BME280;7432;48.728;9.154;2022-08-25T07:36:55;96625.03;;;28.12;48.53
14689;BME280;7432;48.728;9.154;2022-08-25T07:39:23;96625.03;;;28.17;48.40
14689;BME280;7432;48.728;9.154;2022-08-25T07:41:50;96623.19;;;27.98;49.15
14689;BME280;7432;48.728;9.154;2022-08-25T07:44:17;96623.94;;;27.33;50.79
14689;BME280;7432;48.728;9.154;2022-08-25T07:46:44;96628.16;;;26.52;51.87
14689;BME280;7432;48.728;9.154;2022-08-25T07:49:10;96621.72;;;26.37;53.28
14689;BME280;7432;48.728;9.154;2022-08-25T07:51:37;96625.19;;;26.43;53.75
14689;BME280;7432;48.728;9.154;2022-08-25T07:54:05;96626.56;;;26.09;54.47
14689;BME280;7432;48.728;9.154;2022-08-25T07:56:32;96630.00;;;25.72;54.96
14689;BME280;7432;48.728;9.154;2022-08-25T07:58:58;96633.50;;;25.24;56.92
14689;BME280;7432;48.728;9.154;2022-08-25T08:01:25;96629.31;;;25.55;56.16
14689;BME280;7432;48.728;9.154;2022-08-25T08:03:51;96631.00;;;25.98;55.10
14689;BME280;7432;48.728;9.154;2022-08-25T08:06:20;96626.78;;;26.39;54.13
14689;BME280;7432;48.728;9.154;2022-08-25T08:08:47;96633.22;;;28.26;48.85
14689;BME280;7432;48.728;9.154;2022-08-25T08:11:17;96636.34;;;30.52;44.37
14689;BME280;7432;48.728;9.154;2022-08-25T08:13:45;96635.59;;;33.02;39.14
14689;BME280;7432;48.728;9.154;2022-08-25T08:16:15;96646.72;;;35.55;35.78
14689;BME280;7432;48.728;9.154;2022-08-25T08:18:42;96655.97;;;37.84;32.06
14689;BME280;7432;48.728;9.154;2022-08-25T08:21:10;96650.63;;;37.22;31.87
14689;BME280;7432;48.728;9.154;2022-08-25T08:23:37;96653.69;;;36.83;32.41
14689;BME280;7432;48.728;9.154;2022-08-25T08:26:03;96649.81;;;38.98;30.86
14689;BME280;7432;48.728;9.154;2022-08-25T08:28:31;96645.06;;;40.73;28.20
14689;BME280;7432;48.728;9.154;2022-08-25T08:30:58;96648.34;;;40.82;28.17
14689;BME280;7432;48.728;9.154;2022-08-25T08:33:24;96660.50;;;41.77;27.17
14689;BME280;7432;48.728;9.154;2022-08-25T08:35:57;96639.22;;;39.97;28.21
14689;BME280;7432;48.728;9.154;2022-08-25T08:38:24;96646.53;;;41.21;27.28
14689;BME280;7432;48.728;9.154;2022-08-25T08:40:59;96629.66;;;39.99;27.99
14689;BME280;7432;48.728;9.154;2022-08-25T08:43:47;96639.22;;;39.97;27.45
14689;BME280;7432;48.728;9.154;2022-08-25T08:46:19;96643.63;;;39.22;29.34
14689;BME280;7432;48.728;9.154;2022-08-25T08:48:56;96629.34;;;39.33;29.15
14689;BME280;7432;48.728;9.154;2022-08-25T08:51:28;96628.72;;;38.76;29.67
14689;BME280;7432;48.728;9.154;2022-08-25T08:54:01;96632.53;;;36.44;32.10
14689;BME280;7432;48.728;9.154;2022-08-25T08:56:35;96634.31;;;38.83;28.96
14689;BME280;7432;48.728;9.154;2022-08-25T08:59:09;96637.94;;;40.06;28.52
14689;BME280;7432;48.728;9.154;2022-08-25T09:01:43;96644.19;;;41.20;26.89
14689;BME280;7432;48.728;9.154;2022-08-25T09:04:14;96635.78;;;41.06;26.41
14689;BME280;7432;48.728;9.154;2022-08-25T09:06:44;96636.75;;;41.90;26.29
14689;BME280;7432;48.728;9.154;2022-08-25T09:09:14;96634.44;;;40.65;26.90
14689;BME280;7432;48.728;9.154;2022-08-25T09:11:52;96626.16;;;41.43;26.08
14689;BME280;7432;48.728;9.154;2022-08-25T09:14:46;96628.91;;;39.31;28.55
14689;BME280;7432;48.728;9.154;2022-08-25T09:17:22;96626.44;;;39.26;28.10
14689;BME280;7432;48.728;9.154;2022-08-25T09:22:59;96634.28;;;41.43;26.15
14689;BME280;7432;48.728;9.154;2022-08-25T09:25:33;96626.09;;;42.42;24.86
14689;BME280;7432;48.728;9.154;2022-08-25T09:28:07;96618.78;;;44.18;23.93
14689;BME280;7432;48.728;9.154;2022-08-25T09:30:43;96617.75;;;44.33;23.60
14689;BME280;7432;48.728;9.154;2022-08-25T09:33:14;96608.19;;;40.50;26.54
14689;BME280;7432;48.728;9.154;2022-08-25T09:35:43;96606.16;;;40.94;26.00
14689;BME280;7432;48.728;9.154;2022-08-25T09:38:11;96609.59;;;40.59;26.68
14689;BME280;7432;48.728;9.154;2022-08-25T09:40:42;96602.09;;;41.38;26.46
14689;BME280;7432;48.728;9.154;2022-08-25T09:43:18;96612.72;;;41.12;26.20
14689;BME280;7432;48.728;9.154;2022-08-25T09:45:49;96609.34;;;43.08;24.90
14689;BME280;7432;48.728;9.154;2022-08-25T09:48:23;96613.84;;;42.07;25.85
14689;BME280;7432;48.728;9.154;2022-08-25T09:50:52;96603.50;;;42.54;25.31
14689;BME280;7432;48.728;9.154;2022-08-25T09:53:20;96604.56;;;42.27;25.62
14689;BME280;7432;48.728;9.154;2022-08-25T09:55:53;96608.19;;;42.57;25.15
14689;BME280;7432;48.728;9.154;2022-08-25T09:58:23;96609.75;;;41.93;25.69
14689;BME280;7432;48.728;9.154;2022-08-25T10:01:09;96601.59;;;41.52;25.76
14689;BME280;7432;48.728;9.154;2022-08-25T10:03:52;96601.66;;;40.51;27.69
14689;BME280;7432;48.728;9.154;2022-08-25T10:06:19;96595.44;;;41.93;25.80
14689;BME280;7432;48.728;9.154;2022-08-25T10:08:52;96593.38;;;40.59;26.14
14689;BME280;7432;48.728;9.154;2022-08-25T10:11:31;96588.63;;;41.22;26.57
14689;BME280;7432;48.728;9.154;2022-08-25T10:14:01;96596.66;;;40.84;27.18
14689;BME280;7432;48.728;9.154;2022-08-25T10:16:30;96592.09;;;41.04;27.09
14689;BME280;7432;48.728;9.154;2022-08-25T10:19:03;96584.06;;;42.07;25.48
14689;BME280;7432;48.728;9.154;2022-08-25T10:21:31;96577.75;;;42.22;25.38
14689;BME280;7432;48.728;9.154;2022-08-25T10:23:58;96572.22;;;40.30;26.96
14689;BME280;7432;48.728;9.154;2022-08-25T10:26:32;96562.09;;;38.04;29.44
14689;BME280;7432;48.728;9.154;2022-08-25T10:29:07;96567.97;;;39.42;27.80
14689;BME280;7432;48.728;9.154;2022-08-25T10:31:45;96566.97;;;40.06;27.48
14689;BME280;7432;48.728;9.154;2022-08-25T10:34:24;96568.31;;;42.12;25.26
14689;BME280;7432;48.728;9.154;2022-08-25T10:36:58;96563.91;;;40.70;26.13
14689;BME280;7432;48.728;9.154;2022-08-25T10:39:38;96563.16;;;38.47;28.53
14689;BME280;7432;48.728;9.154;2022-08-25T10:42:15;96554.53;;;38.78;27.92
14689;BME280;7432;48.728;9.154;2022-08-25T10:44:51;96550.28;;;39.17;27.54
14689;BME280;7432;48.728;9.154;2022-08-25T10:47:50;96555.22;;;40.96;25.26
14689;BME280;7432;48.728;9.154;2022-08-25T10:50:27;96555.75;;;41.20;24.79
14689;BME280;7432;48.728;9.154;2022-08-25T10:53:08;96539.88;;;39.03;27.21
14689;BME280;7432;48.728;9.154;2022-08-25T10:55:44;96531.16;;;39.34;27.40
14689;BME280;7432;48.728;9.154;2022-08-25T10:58:21;96537.53;;;41.17;25.54
14689;BME280;7432;48.728;9.154;2022-08-25T11:00:56;96542.63;;;41.61;24.88
14689;BME280;7432;48.728;9.154;2022-08-25T11:03:36;96540.06;;;41.49;24.99
14689;BME280;7432;48.728;9.154;2022-08-25T11:06:13;96528.00;;;38.92;27.13
14689;BME280;7432;48.728;9.154;2022-08-25T11:08:46;96519.13;;;40.53;26.15
14689;BME280;7432;48.728;9.154;2022-08-25T11:11:22;96527.22;;;41.65;25.57
14689;BME280;7432;48.728;9.154;2022-08-25T11:13:54;96519.34;;;40.13;26.38
14689;BME280;7432;48.728;9.154;2022-08-25T11:16:33;96520.44;;;39.65;26.80
14689;BME280;7432;48.728;9.154;2022-08-25T11:19:08;96503.78;;;39.20;27.23
14689;BME280;7432;48.728;9.154;2022-08-25T11:21:43;96506.13;;;39.22;27.20
14689;BME280;7432;48.728;9.154;2022-08-25T11:24:28;96507.56;;;37.05;29.71
14689;BME280;7432;48.728;9.154;2022-08-25T11:26:58;96510.72;;;36.57;30.59
14689;BME280;7432;48.728;9.154;2022-08-25T11:29:29;96501.38;;;35.41;32.56
14689;BME280;7432;48.728;9.154;2022-08-25T11:31:59;96506.56;;;35.46;32.12
14689;BME280;7432;48.728;9.154;2022-08-25T11:34:30;96492.00;;;33.34;34.05
14689;BME280;7432;48.728;9.154;2022-08-25T11:37:00;96488.16;;;33.05;34.82
14689;BME280;7432;48.728;9.154;2022-08-25T11:39:49;96484.69;;;32.05;36.75
14689;BME280;7432;48.728;9.154;2022-08-25T11:42:29;96483.75;;;31.37;37.86
14689;BME280;7432;48.728;9.154;2022-08-25T11:45:06;96478.00;;;30.41;39.09
14689;BME280;7432;48.728;9.154;2022-08-25T11:47:52;96474.38;;;30.14;38.79
14689;BME280;7432;48.728;9.154;2022-08-25T11:50:29;96478.16;;;29.84;40.79
14689;BME280;7432;48.728;9.154;2022-08-25T11:52:59;96473.25;;;29.67;40.36
14689;BME280;7432;48.728;9.154;2022-08-25T11:55:45;96470.75;;;29.52;41.33
14689;BME280;7432;48.728;9.154;2022-08-25T11:58:25;96471.47;;;29.34;41.27
14689;BME280;7432;48.728;9.154;2022-08-25T12:00:57;96468.59;;;29.54;41.37
14689;BME280;7432;48.728;9.154;2022-08-25T12:03:49;96465.66;;;30.08;40.68
14689;BME280;7432;48.728;9.154;2022-08-25T12:06:24;96474.16;;;30.29;40.06
14689;BME280;7432;48.728;9.154;2022-08-25T12:08:54;96467.41;;;30.18;40.27
14689;BME280;7432;48.728;9.154;2022-08-25T12:11:59;96458.25;;;30.47;39.64
14689;BME280;7432;48.728;9.154;2022-08-25T12:14:46;96466.69;;;30.55;39.60
14689;BME280;7432;48.728;9.154;2022-08-25T12:17:22;96458.09;;;30.58;39.75
14689;BME280;7432;48.728;9.154;2022-08-25T12:19:53;96457.09;;;30.72;39.48
14689;BME280;7432;48.728;9.154;2022-08-25T12:22:54;96467.75;;;30.53;40.15
14689;BME280;7432;48.728;9.154;2022-08-25T12:25:33;96449.84;;;30.40;40.52
14689;BME280;7432;48.728;9.154;2022-08-25T12:28:09;96447.69;;;30.61;40.70
14689;BME280;7432;48.728;9.154;2022-08-25T12:30:44;96452.94;;;30.47;39.70
14689;BME280;7432;48.728;9.154;2022-08-25T12:33:20;96451.16;;;30.43;40.73
14689;BME280;7432;48.728;9.154;2022-08-25T12:35:54;96445.44;;;29.88;40.84
14689;BME280;7432;48.728;9.154;2022-08-25T12:38:28;96442.50;;;29.90;41.23
14689;BME280;7432;48.728;9.154;2022-08-25T12:40:59;96452.19;;;29.76;41.08
14689;BME280;7432;48.728;9.154;2022-08-25T12:43:30;96445.44;;;29.60;40.53
14689;BME280;7432;48.728;9.154;2022-08-25T12:49:01;96442.56;;;28.99;41.06
14689;BME280;7432;48.728;9.154;2022-08-25T12:51:46;96430.13;;;29.28;40.35
14689;BME280;7432;48.728;9.154;2022-08-25T12:54:17;96432.72;;;28.99;40.08
14689;BME280;7432;48.728;9.154;2022-08-25T12:56:48;96442.88;;;28.92;41.14
14689;BME280;7432;48.728;9.154;2022-08-25T12:59:19;96436.31;;;29.13;41.23
14689;BME280;7432;48.728;9.154;2022-08-25T13:02:08;96436.06;;;29.15;41.42
14689;BME280;7432;48.728;9.154;2022-08-25T13:05:04;96426.25;;;29.10;41.66
14689;BME280;7432;48.728;9.154;2022-08-25T13:07:59;96429.06;;;28.95;41.18
14689;BME280;7432;48.728;9.154;2022-08-25T13:10:39;96434.16;;;29.20;41.23
14689;BME280;7432;48.728;9.154;2022-08-25T13:13:12;96431.25;;;29.46;40.34
14689;BME280;7432;48.728;9.154;2022-08-25T13:15:45;96425.94;;;29.46;40.15
14689;BME280;7432;48.728;9.154;2022-08-25T13:18:19;96433.34;;;29.49;41.27
14689;BME280;7432;48.728;9.154;2022-08-25T13:20:47;96430.06;;;29.33;40.37
14689;BME280;7432;48.728;9.154;2022-08-25T13:23:16;96413.09;;;29.34;40.67
14689;BME280;7432;48.728;9.154;2022-08-25T13:25:46;96409.41;;;29.30;40.49
14689;BME280;7432;48.728;9.154;2022-08-25T13:28:22;96410.59;;;29.14;41.88
14689;BME280;7432;48.728;9.154;2022-08-25T13:44:36;96398.38;;;29.13;41.73
14689;BME280;7432;48.728;9.154;2022-08-25T13:47:05;96396.75;;;29.22;41.75